createdAt,value
2023-04-26T00:00:27.070Z,652.00
2023-04-26T00:00:57.185Z,654.00
2023-04-26T00:01:27.300Z,653.00
2023-04-26T00:01:57.420Z,651.00
2023-04-26T00:02:27.641Z,650.00
2023-04-26T00:02:57.530Z,651.00
2023-04-26T00:03:27.612Z,652.00
2023-04-26T00:03:57.788Z,651.00
2023-04-26T00:04:27.897Z,650.00
2023-04-26T00:04:57.972Z,648.00
2023-04-26T00:05:27.877Z,649.00
2023-04-26T00:05:57.978Z,648.00
2023-04-26T00:06:27.886Z,650.00
2023-04-26T00:06:58.004Z,650.00
2023-04-26T00:07:28.134Z,649.00
2023-04-26T00:07:58.136Z,650.00
2023-04-26T00:08:28.117Z,650.00
2023-04-26T00:08:58.235Z,650.00
2023-04-26T00:09:28.250Z,650.00
2023-04-26T00:09:58.355Z,649.00
2023-04-26T00:10:28.479Z,648.00
2023-04-26T00:10:58.470Z,648.00
2023-04-26T00:11:58.544Z,647.00
2023-04-26T00:12:28.550Z,648.00
2023-04-26T00:12:58.660Z,649.00
2023-04-26T00:13:28.776Z,649.00
2023-04-26T00:13:58.893Z,649.00
2023-04-26T00:14:28.893Z,646.00
2023-04-26T00:14:59.001Z,645.00
2023-04-26T00:15:28.993Z,647.00
2023-04-26T00:16:29.185Z,648.00
2023-04-26T00:16:59.174Z,648.00
2023-04-26T00:17:29.196Z,648.00
2023-04-26T00:17:59.209Z,648.00
2023-04-26T00:18:29.186Z,647.00
2023-04-26T00:18:59.181Z,646.00
2023-04-26T00:19:29.293Z,645.00
2023-04-26T00:19:59.446Z,644.00
2023-04-26T00:20:29.422Z,643.00
2023-04-26T00:20:59.558Z,644.00
2023-04-26T00:21:29.541Z,644.00
2023-04-26T00:21:59.546Z,641.00
2023-04-26T00:22:29.543Z,641.00
2023-04-26T00:22:59.663Z,641.00
2023-04-26T00:23:29.656Z,640.00
2023-04-26T00:23:59.775Z,639.00
2023-04-26T00:24:29.773Z,639.00
2023-04-26T00:24:59.774Z,638.00
2023-04-26T00:25:29.890Z,636.00
2023-04-26T00:26:00.006Z,636.00
2023-04-26T00:26:30.122Z,636.00
2023-04-26T00:27:00.242Z,638.00
2023-04-26T00:27:30.362Z,638.00
2023-04-26T00:28:00.359Z,638.00
2023-04-26T00:28:30.473Z,636.00
2023-04-26T00:29:00.592Z,637.00
2023-04-26T00:29:30.591Z,635.00
2023-04-26T00:30:00.711Z,634.00
2023-04-26T00:30:30.817Z,632.00
2023-04-26T00:31:00.814Z,631.00
2023-04-26T00:31:30.856Z,631.00
2023-04-26T00:32:01.019Z,632.00
2023-04-26T00:32:30.974Z,633.00
2023-04-26T00:33:01.074Z,633.00
2023-04-26T00:33:31.027Z,633.00
2023-04-26T00:34:01.119Z,635.00
2023-04-26T00:34:31.188Z,636.00
2023-04-26T00:35:01.379Z,637.00
2023-04-26T00:35:31.290Z,637.00
2023-04-26T00:36:31.407Z,637.00
2023-04-26T00:37:01.492Z,638.00
2023-04-26T00:37:31.576Z,638.00
2023-04-26T00:38:01.651Z,637.00
2023-04-26T00:38:31.746Z,636.00
2023-04-26T00:39:01.819Z,636.00
2023-04-26T00:39:31.893Z,634.00
2023-04-26T00:40:01.983Z,633.00
2023-04-26T00:40:32.055Z,633.00
2023-04-26T00:41:02.140Z,632.00
2023-04-26T00:41:32.215Z,633.00
2023-04-26T00:42:02.319Z,632.00
2023-04-26T00:42:32.372Z,632.00
2023-04-26T00:43:02.466Z,631.00
2023-04-26T00:43:32.466Z,632.00
2023-04-26T00:44:02.588Z,631.00
2023-04-26T00:44:32.596Z,631.00
2023-04-26T00:45:02.701Z,630.00
2023-04-26T00:45:32.883Z,630.00
2023-04-26T00:46:02.914Z,629.00
2023-04-26T00:46:32.897Z,630.00
2023-04-26T00:47:03.020Z,630.00
2023-04-26T00:47:33.180Z,628.00
2023-04-26T00:48:03.200Z,629.00
2023-04-26T00:48:33.188Z,627.00
2023-04-26T00:49:03.319Z,627.00
2023-04-26T00:49:33.309Z,628.00
2023-04-26T00:50:33.404Z,628.00
2023-04-26T00:51:03.501Z,627.00
2023-04-26T00:51:33.493Z,624.00
2023-04-26T00:52:03.626Z,625.00
2023-04-26T00:52:33.742Z,623.00
2023-04-26T00:53:03.729Z,624.00
2023-04-26T00:53:33.841Z,624.00
2023-04-26T00:54:03.968Z,625.00
2023-04-26T00:54:33.970Z,627.00
2023-04-26T00:55:04.076Z,627.00
2023-04-26T00:55:34.227Z,627.00
2023-04-26T00:56:04.270Z,629.00
2023-04-26T00:56:34.279Z,630.00
2023-04-26T00:57:04.398Z,628.00
2023-04-26T00:57:34.520Z,629.00
2023-04-26T00:58:04.626Z,627.00
2023-04-26T00:58:34.630Z,628.00
2023-04-26T00:59:04.746Z,625.00
2023-04-26T00:59:34.855Z,625.00
2023-04-26T01:00:04.994Z,625.00
2023-04-26T01:00:34.968Z,625.00
2023-04-26T01:01:05.131Z,624.00
2023-04-26T01:01:35.303Z,624.00
2023-04-26T01:02:05.343Z,624.00
2023-04-26T01:02:35.443Z,623.00
2023-04-26T01:03:05.491Z,623.00
2023-04-26T01:03:35.616Z,623.00
2023-04-26T01:04:05.651Z,622.00
2023-04-26T01:04:35.510Z,623.00
2023-04-26T01:05:05.508Z,622.00
2023-04-26T01:05:35.491Z,620.00
2023-04-26T01:06:05.760Z,622.00
2023-04-26T01:06:35.621Z,621.00
2023-04-26T01:07:35.729Z,618.00
2023-04-26T01:08:05.843Z,619.00
2023-04-26T01:08:35.838Z,619.00
2023-04-26T01:09:05.958Z,619.00
2023-04-26T01:09:36.079Z,619.00
2023-04-26T01:10:06.076Z,619.00
2023-04-26T01:11:06.158Z,620.00
2023-04-26T01:11:36.280Z,620.00
2023-04-26T01:12:06.265Z,621.00
2023-04-26T01:13:06.338Z,618.00
2023-04-26T01:13:36.472Z,619.00
2023-04-26T01:14:06.453Z,619.00
2023-04-26T01:14:36.577Z,618.00
2023-04-26T01:15:06.695Z,619.00
2023-04-26T01:15:36.808Z,619.00
2023-04-26T01:16:06.928Z,619.00
2023-04-26T01:16:36.933Z,618.00
2023-04-26T01:17:37.015Z,618.00
2023-04-26T01:18:07.128Z,617.00
2023-04-26T01:18:37.128Z,617.00
2023-04-26T01:19:07.149Z,617.00
2023-04-26T01:19:37.126Z,617.00
2023-04-26T01:20:07.246Z,618.00
2023-04-26T01:20:37.393Z,619.00
2023-04-26T01:21:07.487Z,619.00
2023-04-26T01:21:37.618Z,620.00
2023-04-26T01:22:07.715Z,622.00
2023-04-26T01:22:37.843Z,619.00
2023-04-26T01:23:07.948Z,617.00
2023-04-26T01:23:38.068Z,618.00
2023-04-26T01:24:08.060Z,618.00
2023-04-26T01:24:38.177Z,617.00
2023-04-26T01:25:08.192Z,618.00
2023-04-26T01:25:38.284Z,617.00
2023-04-26T01:26:08.405Z,616.00
2023-04-26T01:26:38.399Z,616.00
2023-04-26T01:27:38.465Z,615.00
2023-04-26T01:28:08.467Z,615.00
2023-04-26T01:28:38.594Z,616.00
2023-04-26T01:29:08.701Z,615.00
2023-04-26T01:29:38.813Z,615.00
2023-04-26T01:30:08.932Z,614.00
2023-04-26T01:30:39.078Z,614.00
2023-04-26T01:31:09.196Z,614.00
2023-04-26T01:31:39.184Z,613.00
2023-04-26T01:32:09.307Z,612.00
2023-04-26T01:32:39.452Z,614.00
2023-04-26T01:33:09.600Z,614.00
2023-04-26T01:33:39.585Z,615.00
2023-04-26T01:34:09.667Z,613.00
2023-04-26T01:34:39.750Z,611.00
2023-04-26T01:35:09.834Z,614.00
2023-04-26T01:35:39.914Z,613.00
2023-04-26T01:36:09.992Z,612.00
2023-04-26T01:36:40.085Z,612.00
2023-04-26T01:37:10.241Z,612.00
2023-04-26T01:37:40.167Z,611.00
2023-04-26T01:38:10.233Z,610.00
2023-04-26T01:38:40.336Z,611.00
2023-04-26T01:39:10.431Z,610.00
2023-04-26T01:39:40.527Z,609.00
2023-04-26T01:40:10.590Z,608.00
2023-04-26T01:40:40.670Z,607.00
2023-04-26T01:41:10.751Z,608.00
2023-04-26T01:41:40.826Z,610.00
2023-04-26T01:42:10.908Z,610.00
2023-04-26T01:42:40.994Z,610.00
2023-04-26T01:43:11.087Z,611.00
2023-04-26T01:43:41.214Z,610.00
2023-04-26T01:44:11.217Z,610.00
2023-04-26T01:44:41.348Z,610.00
2023-04-26T01:45:11.328Z,609.00
2023-04-26T01:46:11.446Z,607.00
2023-04-26T01:46:41.639Z,606.00
2023-04-26T01:47:11.557Z,606.00
2023-04-26T01:47:41.716Z,608.00
2023-04-26T01:48:11.709Z,607.00
2023-04-26T01:48:41.710Z,608.00
2023-04-26T01:49:11.821Z,610.00
2023-04-26T01:49:41.942Z,609.00
2023-04-26T01:50:11.934Z,611.00
2023-04-26T01:51:12.006Z,612.00
2023-04-26T01:51:42.005Z,611.00
2023-04-26T01:52:12.023Z,610.00
2023-04-26T01:52:42.119Z,610.00
2023-04-26T01:53:12.116Z,608.00
2023-04-26T01:53:42.231Z,609.00
2023-04-26T01:54:12.361Z,608.00
2023-04-26T01:54:42.472Z,608.00
2023-04-26T01:55:12.457Z,609.00
2023-04-26T01:55:42.582Z,608.00
2023-04-26T01:56:12.699Z,608.00
2023-04-26T01:56:42.815Z,609.00
2023-04-26T01:57:12.939Z,609.00
2023-04-26T01:57:43.061Z,610.00
2023-04-26T01:58:13.052Z,611.00
2023-04-26T01:59:13.138Z,611.00
2023-04-26T01:59:43.251Z,610.00
2023-04-26T02:00:13.247Z,609.00
2023-04-26T02:00:43.355Z,607.00
2023-04-26T02:01:13.504Z,607.00
2023-04-26T02:01:43.570Z,606.00
2023-04-26T02:02:13.584Z,605.00
2023-04-26T02:02:43.727Z,604.00
2023-04-26T02:03:13.795Z,604.00
2023-04-26T02:03:43.705Z,604.00
2023-04-26T02:04:13.735Z,603.00
2023-04-26T02:04:43.782Z,603.00
2023-04-26T02:05:13.822Z,603.00
2023-04-26T02:05:43.860Z,604.00
2023-04-26T02:06:13.980Z,603.00
2023-04-26T02:06:43.980Z,604.00
2023-04-26T02:07:44.090Z,602.00
2023-04-26T02:08:14.061Z,602.00
2023-04-26T02:08:44.177Z,603.00
2023-04-26T02:09:14.302Z,602.00
2023-04-26T02:09:44.410Z,603.00
2023-04-26T02:10:14.534Z,602.00
2023-04-26T02:10:44.527Z,603.00
2023-04-26T02:11:14.653Z,602.00
2023-04-26T02:11:44.759Z,603.00
2023-04-26T02:12:14.750Z,602.00
2023-04-26T02:12:44.881Z,601.00
2023-04-26T02:13:14.868Z,601.00
2023-04-26T02:14:14.939Z,598.00
2023-04-26T02:14:45.057Z,596.00
2023-04-26T02:15:15.062Z,596.00
2023-04-26T02:15:45.217Z,595.00
2023-04-26T02:16:15.214Z,594.00
2023-04-26T02:16:45.231Z,594.00
2023-04-26T02:17:15.223Z,595.00
2023-04-26T02:17:45.403Z,594.00
2023-04-26T02:18:15.384Z,596.00
2023-04-26T02:18:45.408Z,596.00
2023-04-26T02:19:15.395Z,596.00
2023-04-26T02:19:45.517Z,596.00
2023-04-26T02:20:15.508Z,596.00
2023-04-26T02:20:45.681Z,597.00
2023-04-26T02:21:15.683Z,596.00
2023-04-26T02:21:45.677Z,597.00
2023-04-26T02:22:15.800Z,598.00
2023-04-26T02:22:45.796Z,597.00
2023-04-26T02:23:15.863Z,597.00
2023-04-26T02:23:45.857Z,597.00
2023-04-26T02:24:15.964Z,598.00
2023-04-26T02:24:46.085Z,597.00
2023-04-26T02:25:16.083Z,597.00
2023-04-26T02:25:46.225Z,598.00
2023-04-26T02:26:16.209Z,599.00
2023-04-26T02:26:46.322Z,599.00
2023-04-26T02:27:16.447Z,599.00
2023-04-26T02:27:46.452Z,600.00
2023-04-26T02:28:46.534Z,600.00
2023-04-26T02:29:16.650Z,599.00
2023-04-26T02:29:46.647Z,598.00
2023-04-26T02:30:16.767Z,598.00
2023-04-26T02:30:46.908Z,598.00
2023-04-26T02:31:16.928Z,597.00
2023-04-26T02:31:46.957Z,596.00
2023-04-26T02:32:16.948Z,598.00
2023-04-26T02:32:47.020Z,597.00
2023-04-26T02:33:16.976Z,597.00
2023-04-26T02:33:47.050Z,598.00
2023-04-26T02:34:17.136Z,598.00
2023-04-26T02:34:47.226Z,596.00
2023-04-26T02:35:17.300Z,598.00
2023-04-26T02:35:47.382Z,598.00
2023-04-26T02:36:17.469Z,599.00
2023-04-26T02:36:47.559Z,599.00
2023-04-26T02:37:17.631Z,600.00
2023-04-26T02:37:47.709Z,600.00
2023-04-26T02:38:17.829Z,599.00
2023-04-26T02:38:47.885Z,597.00
2023-04-26T02:39:17.973Z,597.00
2023-04-26T02:39:48.054Z,599.00
2023-04-26T02:40:18.136Z,599.00
2023-04-26T02:40:48.223Z,600.00
2023-04-26T02:41:18.295Z,600.00
2023-04-26T02:41:48.373Z,602.00
2023-04-26T02:42:18.475Z,602.00
2023-04-26T02:42:48.549Z,600.00
2023-04-26T02:43:18.536Z,600.00
2023-04-26T02:43:48.657Z,598.00
2023-04-26T02:44:18.767Z,599.00
2023-04-26T02:44:48.767Z,599.00
2023-04-26T02:45:48.843Z,598.00
2023-04-26T02:46:18.851Z,598.00
2023-04-26T02:46:49.154Z,599.00
2023-04-26T02:47:19.048Z,599.00
2023-04-26T02:47:49.205Z,599.00
2023-04-26T02:48:19.235Z,600.00
2023-04-26T02:48:49.320Z,599.00
2023-04-26T02:49:19.345Z,597.00
2023-04-26T02:49:49.334Z,599.00
2023-04-26T02:50:19.452Z,598.00
2023-04-26T02:50:49.578Z,598.00
2023-04-26T02:51:19.680Z,600.00
2023-04-26T02:51:49.807Z,600.00
2023-04-26T02:52:19.798Z,601.00
2023-04-26T02:52:49.918Z,601.00
2023-04-26T02:53:19.935Z,602.00
2023-04-26T02:53:49.923Z,602.00
2023-04-26T02:54:50.036Z,601.00
2023-04-26T02:55:20.043Z,602.00
2023-04-26T02:56:20.109Z,602.00
2023-04-26T02:56:50.090Z,602.00
2023-04-26T02:57:50.163Z,598.00
2023-04-26T02:58:20.158Z,598.00
2023-04-26T02:58:50.496Z,598.00
2023-04-26T02:59:20.224Z,597.00
2023-04-26T02:59:50.340Z,597.00
2023-04-26T03:00:20.333Z,598.00
2023-04-26T03:00:50.469Z,598.00
2023-04-26T03:01:20.485Z,597.00
2023-04-26T03:01:50.504Z,597.00
2023-04-26T03:02:20.588Z,597.00
2023-04-26T03:02:50.612Z,596.00
2023-04-26T03:03:20.758Z,597.00
2023-04-26T03:03:50.820Z,598.00
2023-04-26T03:04:20.830Z,599.00
2023-04-26T03:04:50.861Z,598.00
2023-04-26T03:05:20.840Z,598.00
2023-04-26T03:06:20.923Z,597.00
2023-04-26T03:06:50.911Z,596.00
2023-04-26T03:07:50.985Z,596.00
2023-04-26T03:08:21.103Z,597.00
2023-04-26T03:08:51.448Z,597.00
2023-04-26T03:09:21.275Z,598.00
2023-04-26T03:09:51.398Z,598.00
2023-04-26T03:10:21.506Z,598.00
2023-04-26T03:10:51.516Z,599.00
2023-04-26T03:11:21.623Z,598.00
2023-04-26T03:11:51.744Z,599.00
2023-04-26T03:12:21.861Z,599.00
2023-04-26T03:12:51.985Z,599.00
2023-04-26T03:13:22.094Z,599.00
2023-04-26T03:13:52.210Z,599.00
2023-04-26T03:14:22.328Z,598.00
2023-04-26T03:14:52.444Z,599.00
2023-04-26T03:15:22.558Z,600.00
2023-04-26T03:15:52.681Z,599.00
2023-04-26T03:16:22.764Z,599.00
2023-04-26T03:16:52.909Z,597.00
2023-04-26T03:17:22.825Z,595.00
2023-04-26T03:17:52.902Z,594.00
2023-04-26T03:18:22.905Z,591.00
2023-04-26T03:18:53.192Z,592.00
2023-04-26T03:19:23.069Z,593.00
2023-04-26T03:19:53.067Z,590.00
2023-04-26T03:20:23.186Z,589.00
2023-04-26T03:20:53.303Z,591.00
2023-04-26T03:21:23.312Z,591.00
2023-04-26T03:21:53.426Z,591.00
2023-04-26T03:22:23.547Z,591.00
2023-04-26T03:22:53.657Z,591.00
2023-04-26T03:23:23.773Z,591.00
2023-04-26T03:23:54.012Z,590.00
2023-04-26T03:24:23.971Z,590.00
2023-04-26T03:24:54.094Z,588.00
2023-04-26T03:25:24.203Z,589.00
2023-04-26T03:25:54.209Z,589.00
2023-04-26T03:26:24.326Z,586.00
2023-04-26T03:26:54.450Z,587.00
2023-04-26T03:27:24.448Z,587.00
2023-04-26T03:27:54.604Z,587.00
2023-04-26T03:28:24.570Z,587.00
2023-04-26T03:28:54.904Z,588.00
2023-04-26T03:29:24.744Z,588.00
2023-04-26T03:29:54.855Z,586.00
2023-04-26T03:30:24.861Z,587.00
2023-04-26T03:31:24.982Z,587.00
2023-04-26T03:31:54.999Z,589.00
2023-04-26T03:32:25.007Z,590.00
2023-04-26T03:32:55.143Z,591.00
2023-04-26T03:33:25.102Z,590.00
2023-04-26T03:33:55.185Z,589.00
2023-04-26T03:34:25.269Z,588.00
2023-04-26T03:34:55.345Z,587.00
2023-04-26T03:35:25.426Z,586.00
2023-04-26T03:35:55.505Z,586.00
2023-04-26T03:36:25.590Z,586.00
2023-04-26T03:36:55.669Z,586.00
2023-04-26T03:37:25.754Z,586.00
2023-04-26T03:37:57.965Z,586.00
2023-04-26T03:38:25.924Z,586.00
2023-04-26T03:38:56.046Z,588.00
2023-04-26T03:39:26.002Z,590.00
2023-04-26T03:39:56.088Z,588.00
2023-04-26T03:40:26.162Z,588.00
2023-04-26T03:40:56.242Z,588.00
2023-04-26T03:41:26.323Z,589.00
2023-04-26T03:41:56.399Z,589.00
2023-04-26T03:42:26.482Z,591.00
2023-04-26T03:42:56.566Z,590.00
2023-04-26T03:43:26.686Z,591.00
2023-04-26T03:43:56.800Z,591.00
2023-04-26T03:44:27.174Z,589.00
2023-04-26T03:44:56.864Z,589.00
2023-04-26T03:45:27.004Z,589.00
2023-04-26T03:45:57.046Z,589.00
2023-04-26T03:46:27.117Z,590.00
2023-04-26T03:46:57.085Z,590.00
2023-04-26T03:47:27.107Z,589.00
2023-04-26T03:47:57.113Z,589.00
2023-04-26T03:48:27.136Z,588.00
2023-04-26T03:48:57.126Z,589.00
2023-04-26T03:49:27.243Z,589.00
2023-04-26T03:49:57.383Z,590.00
2023-04-26T03:50:27.479Z,591.00
2023-04-26T03:50:57.468Z,590.00
2023-04-26T03:51:27.590Z,589.00
2023-04-26T03:51:57.580Z,589.00
2023-04-26T03:52:27.710Z,591.00
2023-04-26T03:52:57.820Z,591.00
2023-04-26T03:53:27.937Z,594.00
2023-04-26T03:53:58.081Z,592.00
2023-04-26T03:54:28.067Z,594.00
2023-04-26T03:55:28.147Z,592.00
2023-04-26T03:55:58.126Z,593.00
2023-04-26T03:56:58.214Z,595.00
2023-04-26T03:57:28.324Z,593.00
2023-04-26T03:57:58.317Z,593.00
2023-04-26T03:58:28.441Z,592.00
2023-04-26T03:58:58.440Z,590.00
2023-04-26T03:59:28.547Z,590.00
2023-04-26T03:59:58.662Z,591.00
2023-04-26T04:00:28.790Z,593.00
2023-04-26T04:00:58.777Z,592.00
2023-04-26T04:01:28.902Z,594.00
2023-04-26T04:01:58.920Z,595.00
2023-04-26T04:02:29.074Z,595.00
2023-04-26T04:02:59.164Z,596.00
2023-04-26T04:03:29.224Z,596.00
2023-04-26T04:03:59.408Z,595.00
2023-04-26T04:04:29.359Z,597.00
2023-04-26T04:04:59.342Z,597.00
2023-04-26T04:05:29.306Z,598.00
2023-04-26T04:05:59.299Z,598.00
2023-04-26T04:06:29.432Z,598.00
2023-04-26T04:06:59.428Z,599.00
2023-04-26T04:07:29.549Z,598.00
2023-04-26T04:07:59.546Z,597.00
2023-04-26T04:08:29.656Z,599.00
2023-04-26T04:08:59.653Z,598.00
2023-04-26T04:09:29.801Z,598.00
2023-04-26T04:09:59.896Z,599.00
2023-04-26T04:10:30.017Z,597.00
2023-04-26T04:11:00.013Z,599.00
2023-04-26T04:11:30.131Z,600.00
2023-04-26T04:12:00.145Z,598.00
2023-04-26T04:13:00.262Z,599.00
2023-04-26T04:13:30.238Z,599.00
2023-04-26T04:14:00.235Z,599.00
2023-04-26T04:14:30.350Z,600.00
2023-04-26T04:15:00.465Z,602.00
2023-04-26T04:15:30.680Z,601.00
2023-04-26T04:16:00.612Z,602.00
2023-04-26T04:16:30.744Z,603.00
2023-04-26T04:17:00.784Z,602.00
2023-04-26T04:17:30.776Z,601.00
2023-04-26T04:18:00.848Z,601.00
2023-04-26T04:18:30.865Z,602.00
2023-04-26T04:19:00.859Z,601.00
2023-04-26T04:19:30.853Z,601.00
2023-04-26T04:20:00.977Z,601.00
2023-04-26T04:20:31.101Z,603.00
2023-04-26T04:21:01.216Z,601.00
2023-04-26T04:21:31.205Z,601.00
2023-04-26T04:22:01.197Z,600.00
2023-04-26T04:23:01.283Z,597.00
2023-04-26T04:23:31.415Z,594.00
2023-04-26T04:24:01.425Z,593.00
2023-04-26T04:24:33.309Z,592.00
2023-04-26T04:25:01.596Z,592.00
2023-04-26T04:25:31.569Z,593.00
2023-04-26T04:26:31.674Z,593.00
2023-04-26T04:27:01.655Z,593.00
2023-04-26T04:27:31.777Z,593.00
2023-04-26T04:28:01.769Z,595.00
2023-04-26T04:29:01.843Z,595.00
2023-04-26T04:29:31.987Z,596.00
2023-04-26T04:30:02.074Z,598.00
2023-04-26T04:30:32.070Z,599.00
2023-04-26T04:31:02.214Z,599.00
2023-04-26T04:31:32.340Z,599.00
2023-04-26T04:32:02.345Z,597.00
2023-04-26T04:32:32.391Z,596.00
2023-04-26T04:33:02.399Z,596.00
2023-04-26T04:33:32.382Z,597.00
2023-04-26T04:34:02.486Z,597.00
2023-04-26T04:34:32.567Z,598.00
2023-04-26T04:35:02.662Z,597.00
2023-04-26T04:35:32.712Z,598.00
2023-04-26T04:36:02.674Z,600.00
2023-04-26T04:36:32.763Z,601.00
2023-04-26T04:37:02.848Z,599.00
2023-04-26T04:37:32.932Z,599.00
2023-04-26T04:38:03.033Z,600.00
2023-04-26T04:38:33.100Z,600.00
2023-04-26T04:39:03.184Z,600.00
2023-04-26T04:39:33.288Z,601.00
2023-04-26T04:40:03.368Z,601.00
2023-04-26T04:40:33.488Z,602.00
2023-04-26T04:41:03.561Z,603.00
2023-04-26T04:41:33.647Z,605.00
2023-04-26T04:42:03.720Z,604.00
2023-04-26T04:42:33.789Z,605.00
2023-04-26T04:43:03.882Z,605.00
2023-04-26T04:43:34.007Z,606.00
2023-04-26T04:44:04.006Z,605.00
2023-04-26T04:44:34.115Z,606.00
2023-04-26T04:45:04.233Z,604.00
2023-04-26T04:45:34.233Z,604.00
2023-04-26T04:46:04.408Z,603.00
2023-04-26T04:46:34.529Z,603.00
2023-04-26T04:47:04.521Z,603.00
2023-04-26T04:47:34.532Z,604.00
2023-04-26T04:48:04.677Z,606.00
2023-04-26T04:48:34.737Z,606.00
2023-04-26T04:49:04.857Z,606.00
2023-04-26T04:49:34.971Z,607.00
2023-04-26T04:50:05.094Z,607.00
2023-04-26T04:50:35.200Z,609.00
2023-04-26T04:51:05.323Z,610.00
2023-04-26T04:51:35.434Z,612.00
2023-04-26T04:52:05.440Z,611.00
2023-04-26T04:52:35.437Z,610.00
2023-04-26T04:53:05.561Z,613.00
2023-04-26T04:53:35.563Z,613.00
2023-04-26T04:54:05.596Z,615.00
2023-04-26T04:54:35.604Z,615.00
2023-04-26T04:55:05.610Z,614.00
2023-04-26T04:55:35.632Z,613.00
2023-04-26T04:56:05.722Z,613.00
2023-04-26T04:56:35.723Z,613.00
2023-04-26T04:57:35.798Z,616.00
2023-04-26T04:58:05.783Z,616.00
2023-04-26T04:59:05.906Z,617.00
2023-04-26T04:59:35.897Z,618.00
2023-04-26T05:00:06.021Z,620.00
2023-04-26T05:00:36.016Z,621.00
2023-04-26T05:01:36.116Z,621.00
2023-04-26T05:02:06.374Z,623.00
2023-04-26T05:02:36.267Z,623.00
2023-04-26T05:03:06.340Z,624.00
2023-04-26T05:03:36.488Z,624.00
2023-04-26T05:04:06.704Z,624.00
2023-04-26T05:04:36.595Z,624.00
2023-04-26T05:05:06.641Z,623.00
2023-04-26T05:05:36.565Z,624.00
2023-04-26T05:06:06.697Z,623.00
2023-04-26T05:06:36.687Z,623.00
2023-04-26T05:07:06.882Z,622.00
2023-04-26T05:07:36.773Z,621.00
2023-04-26T05:08:06.791Z,621.00
2023-04-26T05:09:06.855Z,623.00
2023-04-26T05:09:36.980Z,624.00
2023-04-26T05:10:06.974Z,625.00
2023-04-26T05:10:37.135Z,628.00
2023-04-26T05:11:07.128Z,627.00
2023-04-26T05:11:37.149Z,627.00
2023-04-26T05:12:07.161Z,628.00
2023-04-26T05:12:37.276Z,629.00
2023-04-26T05:13:07.440Z,628.00
2023-04-26T05:13:37.430Z,627.00
2023-04-26T05:14:07.543Z,629.00
2023-04-26T05:14:37.677Z,629.00
2023-04-26T05:15:07.678Z,629.00
2023-04-26T05:15:37.818Z,627.00
2023-04-26T05:16:07.943Z,629.00
2023-04-26T05:16:37.910Z,630.00
2023-04-26T05:17:37.948Z,632.00
2023-04-26T05:18:07.981Z,632.00
2023-04-26T05:18:37.998Z,632.00
2023-04-26T05:19:09.475Z,632.00
2023-04-26T05:19:38.014Z,633.00
2023-04-26T05:20:08.131Z,632.00
2023-04-26T05:20:38.124Z,635.00
2023-04-26T05:21:08.351Z,635.00
2023-04-26T05:21:38.234Z,635.00
2023-04-26T05:22:08.359Z,636.00
2023-04-26T05:22:38.358Z,637.00
2023-04-26T05:23:08.368Z,638.00
2023-04-26T05:23:38.364Z,640.00
2023-04-26T05:24:38.451Z,637.00
2023-04-26T05:25:08.578Z,636.00
2023-04-26T05:25:38.678Z,638.00
2023-04-26T05:26:08.838Z,637.00
2023-04-26T05:26:38.839Z,636.00
2023-04-26T05:27:08.828Z,636.00
2023-04-26T05:27:38.953Z,636.00
2023-04-26T05:28:09.088Z,635.00
2023-04-26T05:28:39.054Z,636.00
2023-04-26T05:29:09.184Z,636.00
2023-04-26T05:29:39.170Z,638.00
2023-04-26T05:30:39.256Z,639.00
2023-04-26T05:31:11.157Z,639.00
2023-04-26T05:31:39.347Z,638.00
2023-04-26T05:32:09.398Z,637.00
2023-04-26T05:32:39.418Z,637.00
2023-04-26T05:33:09.562Z,638.00
2023-04-26T05:33:39.535Z,640.00
2023-04-26T05:34:09.628Z,650.00
2023-04-26T05:34:39.705Z,663.00
2023-04-26T05:35:09.787Z,656.00
2023-04-26T05:35:39.880Z,656.00
2023-04-26T05:36:09.989Z,656.00
2023-04-26T05:36:40.084Z,653.00
2023-04-26T05:37:10.151Z,652.00
2023-04-26T05:37:40.241Z,652.00
2023-04-26T05:38:10.340Z,653.00
2023-04-26T05:38:40.414Z,653.00
2023-04-26T05:39:10.492Z,654.00
2023-04-26T05:39:40.571Z,659.00
2023-04-26T05:40:10.654Z,663.00
2023-04-26T05:40:40.738Z,664.00
2023-04-26T05:41:10.843Z,664.00
2023-04-26T05:41:40.975Z,665.00
2023-04-26T05:42:11.023Z,667.00
2023-04-26T05:42:41.101Z,668.00
2023-04-26T05:43:11.214Z,669.00
2023-04-26T05:43:41.254Z,670.00
2023-04-26T05:44:11.258Z,672.00
2023-04-26T05:45:11.338Z,672.00
2023-04-26T05:45:41.456Z,671.00
2023-04-26T05:46:11.659Z,672.00
2023-04-26T05:46:41.664Z,671.00
2023-04-26T05:47:11.658Z,670.00
2023-04-26T05:47:41.824Z,668.00
2023-04-26T05:48:11.872Z,668.00
2023-04-26T05:48:41.888Z,666.00
2023-04-26T05:49:12.026Z,664.00
2023-04-26T05:49:42.055Z,661.00
2023-04-26T05:50:12.217Z,658.00
2023-04-26T05:50:42.122Z,656.00
2023-04-26T05:51:12.169Z,657.00
2023-04-26T05:51:42.168Z,656.00
2023-04-26T05:52:42.248Z,651.00
2023-04-26T05:53:12.252Z,649.00
2023-04-26T05:53:42.249Z,648.00
2023-04-26T05:54:12.367Z,647.00
2023-04-26T05:54:42.374Z,647.00
2023-04-26T05:55:42.447Z,648.00
2023-04-26T05:56:12.682Z,648.00
2023-04-26T05:56:42.679Z,648.00
2023-04-26T05:57:12.922Z,649.00
2023-04-26T05:57:42.994Z,651.00
2023-04-26T05:58:13.011Z,651.00
2023-04-26T05:58:42.995Z,652.00
2023-04-26T05:59:13.005Z,654.00
2023-04-26T05:59:43.039Z,654.00
2023-04-26T06:00:13.033Z,655.00
2023-04-26T06:01:52.067Z,658.00
2023-04-26T06:02:22.204Z,657.00
2023-04-26T06:02:52.282Z,655.00
2023-04-26T06:03:22.418Z,653.00
2023-04-26T06:03:54.374Z,653.00
2023-04-26T06:04:22.761Z,653.00
2023-04-26T06:04:52.573Z,654.00
2023-04-26T06:05:22.575Z,654.00
2023-04-26T06:05:52.758Z,653.00
2023-04-26T06:06:22.655Z,652.00
2023-04-26T06:06:52.732Z,653.00
2023-04-26T06:07:22.811Z,654.00
2023-04-26T06:07:52.906Z,654.00
2023-04-26T06:08:22.994Z,656.00
2023-04-26T06:08:53.076Z,657.00
2023-04-26T06:09:23.182Z,659.00
2023-04-26T06:09:53.235Z,660.00
2023-04-26T06:10:23.314Z,659.00
2023-04-26T06:10:53.395Z,659.00
2023-04-26T06:11:23.475Z,661.00
2023-04-26T06:11:53.478Z,661.00
2023-04-26T06:12:23.498Z,659.00
2023-04-26T06:12:53.582Z,659.00
2023-04-26T06:13:23.741Z,660.00
2023-04-26T06:13:53.990Z,660.00
2023-04-26T06:14:30.432Z,660.00
2023-04-26T06:14:53.803Z,660.00
2023-04-26T06:15:23.797Z,661.00
2023-04-26T06:16:23.811Z,663.00
2023-04-26T06:16:53.825Z,665.00
2023-04-26T06:17:23.924Z,665.00
2023-04-26T06:17:53.983Z,668.00
2023-04-26T06:18:23.993Z,670.00
2023-04-26T06:18:53.988Z,673.00
2023-04-26T06:19:24.004Z,673.00
2023-04-26T06:19:54.118Z,675.00
2023-04-26T06:20:24.103Z,676.00
2023-04-26T06:20:54.233Z,679.00
2023-04-26T06:21:24.235Z,680.00
2023-04-26T06:22:24.300Z,682.00
2023-04-26T06:22:54.414Z,683.00
2023-04-26T06:23:24.417Z,684.00
2023-04-26T06:24:24.498Z,688.00
2023-04-26T06:24:54.499Z,688.00
2023-04-26T06:25:54.586Z,691.00
2023-04-26T06:26:24.581Z,692.00
2023-04-26T06:27:24.655Z,689.00
2023-04-26T06:27:54.677Z,690.00
2023-04-26T06:28:24.790Z,690.00
2023-04-26T06:28:54.818Z,689.00
2023-04-26T06:29:24.818Z,690.00
2023-04-26T06:29:54.939Z,691.00
2023-04-26T06:30:24.954Z,690.00
2023-04-26T06:30:54.962Z,688.00
2023-04-26T06:31:25.016Z,687.00
2023-04-26T06:31:55.067Z,687.00
2023-04-26T06:32:25.078Z,689.00
2023-04-26T06:32:55.281Z,691.00
2023-04-26T06:33:25.281Z,691.00
2023-04-26T06:33:55.620Z,692.00
2023-04-26T06:34:25.487Z,693.00
2023-04-26T06:34:55.488Z,692.00
2023-04-26T06:35:25.591Z,691.00
2023-04-26T06:35:55.719Z,690.00
2023-04-26T06:36:25.735Z,692.00
2023-04-26T06:36:55.715Z,690.00
2023-04-26T06:37:25.829Z,688.00
2023-04-26T06:37:55.829Z,688.00